• Join FlightAware (Why Join?)
  • Login
  • US Flag 
05:13PM EDT


 

Airport Tracker/Info


-or-


 

Live Flight TrackerFlight Track Log ✈ UAL3852 ✈ 05-Feb-2014 ✈ KIAH - KMAF

Flight Track Log - Related Links

Times and Time Zones

All times are in EST time to prevent confusion due to time zone crossing. See the UAL3852 flight status page for this flight to view local times or setup timezone preferences in your user account.

Time Position Orientation Groundspeed Altitude Reporting Facility
EST Latitude Longitude Course Direction KTS MPH feet Rate Location/Type
02:03PM 29.9889 -95.3644 276° West 152 175 800  Level Houston Center
02:03PM 29.9958 -95.3950 285° West 191 220 1,900 1,740 Climbing Houston Center
02:04PM 29.9878 -95.4683 263° West 245 282 3,700 1,860 Climbing Houston Center
02:05PM 29.9917 -95.4931 280° West 227 261 4,500 2,340 Climbing Houston Center
02:06PM 30.0033 -95.5731 280° West 250 288 6,900 2,340 Climbing Houston Center
02:07PM 30.0458 -95.9490 276° West  Level FlightAware Approximate
02:07PM 30.0153 -95.6539 280° West 255 293 9,400  Level Houston Center
02:08PM 30.0684 -96.0694 276° West  Level FlightAware Approximate
02:08PM 30.0267 -95.7339 279° West 256 295 10,900  Level Houston Center
02:09PM 30.0392 -95.8281 279° West 293 337 11,900 960 Climbing Houston Center
02:10PM 30.0533 -95.9297 279° West 319 367 13,000 1,200 Climbing Houston Center
02:11PM 30.0686 -96.0478 279° West 328 377 14,400 1,200 Climbing Houston Center
02:12PM 30.0853 -96.1522 280° West 331 381 15,600 1,140 Climbing Houston Center
02:13PM 30.1017 -96.2575 280° West 333 383 16,800 1,080 Climbing Houston Center
02:14PM 30.1203 -96.3833 280° West 333 383 17,900 1,020 Climbing Houston Center
02:15PM 30.1347 -96.4769 280° West 333 383 19,000 1,200 Climbing Houston Center
02:16PM 30.1539 -96.6017 280° West 335 386 20,400 1,260 Climbing Houston Center
02:17PM 30.1708 -96.7100 280° West 339 390 21,700 1,200 Climbing Houston Center
02:18PM 30.1861 -96.8172 279° West 336 387 22,900 1,140 Climbing Houston Center
02:19PM 30.2031 -96.9239 280° West 335 386 24,100 1,200 Climbing Houston Center
02:20PM 30.2183 -97.0311 279° West 334 384 25,400 1,200 Climbing Houston Center
02:21PM 30.2336 -97.1364 280° West 329 379 26,600 1,140 Climbing Houston Center
02:22PM 30.2492 -97.2403 280° West 325 374 27,800 1,140 Climbing Houston Center
02:23PM 30.2661 -97.3572 280° West 315 362 29,000 1,080 Climbing Houston Center
02:24PM 30.2800 -97.4583 279° West 314 361 30,100 960 Climbing Houston Center
02:25PM 30.2947 -97.5578 280° West 311 358 31,100 780 Climbing Houston Center
02:26PM 30.3094 -97.6586 280° West 313 360 31,800 420 Climbing Houston Center
02:27PM 30.3336 -97.7614 285° West 327 376 32,000 60 Climbing Houston Center
02:28PM 30.3764 -97.8653 296° West 351 404 32,000  Level Houston Center
02:30PM 30.4197 -97.9750 295° West 367 422 32,000  Level Houston Center
02:31PM 30.4639 -98.0844 295° West 369 425 32,000  Level Houston Center
02:32PM 30.5128 -98.2092 294° West 361 415 32,000  Level Houston Center
02:33PM 30.5536 -98.3139 294° West 354 407 32,000  Level Houston Center
02:34PM 30.5958 -98.4200 295° West 357 411 32,000  Level Houston Center
02:35PM 30.6375 -98.5269 294° West 359 413 32,000  Level Houston Center
02:36PM 30.6800 -98.6336 295° West 360 414 32,000  Level Houston Center
02:37PM 30.7217 -98.7414 294° West 361 415 32,000  Level Houston Center
02:38PM 30.7636 -98.8489 294° West 361 415 32,000  Level Houston Center
02:39PM 30.8128 -98.9753 294° West 363 418 32,000  Level Houston Center
02:40PM 30.8550 -99.0819 295° West 361 415 32,000  Level Houston Center
02:41PM 30.8919 -99.1767 294° West 361 415 32,000 -60 Level Houston Center
02:42PM 30.9400 -99.3050 294° West 361 415 31,900  Descending Houston Center
02:43PM 30.9806 -99.4103 294° West 359 413 32,000  Climbing Houston Center
02:44PM 31.0214 -99.5161 294° West 361 415 32,000  Level Houston Center
02:45PM 31.0625 -99.6231 294° West 362 417 32,000  Level Houston Center
02:46PM 31.1033 -99.7294 294° West 362 417 32,000  Level Houston Center
02:47PM 31.1439 -99.8375 294° West 365 420 32,000 -240 Level Houston Center
02:48PM 31.1928 -99.9664 294° West 364 419 31,600 -960 Descending Houston Center
02:49PM 31.2339 -100.0758 294° West 370 426 30,100 -1,440 Descending Houston Center
02:50PM 31.2758 -100.1894 293° West 381 438 28,600 -1,500 Descending Houston Center
02:51PM 31.3194 -100.3047 294° West 389 448 27,000 -1,500 Descending Houston Center
02:52PM 31.3633 -100.4208 294° West 392 451 25,500 -1,620 Descending Houston Center
02:53PM 31.4069 -100.5672 289° West 402 463 23,700 -1,620 Descending Houston Center
02:54PM 31.4039 -100.6369 267° West 385 443 22,700 -1,680 Descending Fort Worth Center
02:55PM 31.4047 -100.7767 270° West 366 421 20,800 -1,680 Descending Fort Worth Center
02:56PM 31.4042 -100.8928 270° West 360 414 19,300 -1,500 Descending Fort Worth Center
02:57PM 31.4064 -101.0069 271° West 354 407 17,700 -1,380 Descending Fort Worth Center
02:58PM 31.4064 -101.1186 270° West 347 399 16,500 -1,380 Descending Fort Worth Center
02:59PM 31.4450 -101.2206 294° West 352 405 14,900 -1,200 Descending Fort Worth Center
03:00PM 31.5147 -101.3389 305° West 366 421 14,100 -420 Descending Fort Worth Center
03:01PM 31.5708 -101.4356 304° West 363 418 14,100 -120 Level Fort Worth Center
03:02PM 31.6275 -101.5317 305° West 360 414 13,900 -840 Descending Fort Worth Center
03:03PM 31.6772 -101.6219 303° West 338 389 12,400 -1,560 Descending Fort Worth Center
03:04PM 31.6856 -101.7125 276° West 288 331 10,700 -1,860 Descending Fort Worth Center
03:05PM 31.6981 -101.8164 278° West 273 314 8,600 -1,980 Descending Fort Worth Center
03:07PM 31.7072 -101.9003 277° West 265 305 6,700 -1,440 Descending Fort Worth Center
03:08PM 31.7114 -101.9853 273° West 262 302 5,700 -900 Descending Fort Worth Center
03:09PM 31.7181 -102.0719 275° West 266 306 4,900 -420 Descending Fort Worth Center
03:10PM 31.7581 -102.1389 305° West 256 295 4,900  Level Fort Worth Center
03:11PM 31.8172 -102.1889 324° Northwest 226 260 4,900 -360 Level Fort Worth Center
03:12PM 31.8714 -102.1983 352° North 202 232 4,200 -780 Descending Fort Worth Center
03:13PM 31.9072 -102.1997 358° North 140 161 3,400 -780 Descending Fort Worth Center
03:15PM 31.9333 -102.2000 196° South  Level FlightAware Approximate
03:22PM 31.9425 -102.2019 196° South  Level Estimated